スィクティフカル の空港の天気 - METARとTAF

Syktyvkar ( UUYY / SCW ) - ロシア スィクティフカル
飛行場実況気象(Metar)
観測時間08/11 10:00 MSK (08/11 07:00 UTC)
風向・風速北北西 2m/s
視程10km以上
天気現象
全天の4割程度の雲 雲底高度 1010m
気温17℃
湿度55%
気圧1012hPa
METARUUYY 110700Z 33002MPS 300V100 9999 SCT033 17/08 Q1012 R36/61D NOSIG RMK QFE750/1000
過去の天気等 Google飛行場航空写真 Wunderground天気予報

過去48時間のMETAR

飛行場予報(TAF)
発表時間: 8/11 08:00 MSK (8/11 05:00 UTC)
予報対象時間: 11日9時 MSK ~ 12日9時 MSK
風向・風速北 3m/s 瞬間風速 10m/s
視程10km以上
全天の8割程度の雲 雲底高度 610m
全天の4割程度の積乱雲 雲底高度 760m
11日11時 MSK ~ 11日21時 MSK に一時的に
視程6000m
天気現象弱いしゅう雨
全天の8割程度の積乱雲 雲底高度 490m
11日21時 MSK から
風向・風速北 3m/s
視程6000m
全天の8割程度の雲 雲底高度 490m
12日0時 MSK ~ 12日7時 MSK に一時的に
視程300m
天気現象
全天の8割程度の雲 雲底高度 60m
TAF UUYY 110500Z 1106/1206 35003G10MPS 9999 BKN020 SCT025CB
TEMPO 1108/1118 6000 -SHRA BKN016CB
FM111800 01003MPS 6000 BKN016
TEMPO 1121/1204 0300 FG BKN002